Stephen Scott — WCW8842 — position and weather

sailwx.info

Track history (hours):
 
Tides and Currents Weather Stations Pressure Air Temp Water Temp Dewpoint Dewpoint Depression Visibility Wind Speed Wind Dir Waves Ship Positions

Stephen Scott

Owner: H A REINAUER INC, STATEN ISLAND, NY. More information available from US FCC via Universal Licensing System and Coast Guard Vessel Documentation Center.

Last reported at 2014-Dec-18 02:18 UTC. Time now 2014-Dec-18 23:10 UTC.
Position N 39°14' W 076°15'.

Length 30 m; draft 2.5 m.

Type: Towing. MMSI: 366245490.

Date/timePositionNaut miles runAvg speedWind from/ knotsBaromVisibWave heightAir tempDewpointWater temp
2014-Dec-18 02:18N 39°14' W 076°15'5 6.7
2014-Dec-18 01:33N 39°10' W 076°18'7 6.7
2014-Dec-18 00:34N 39°11' W 076°27'8 7.6
2014-Dec-17 23:33N 39°16' W 076°34'1 1.4
2014-Dec-17 22:32N 39°17' W 076°36'0 0.0
2014-Dec-17 21:32N 39°17' W 076°36'0 0.0
2014-Dec-17 20:32N 39°17' W 076°36'0 0.0
2014-Dec-17 19:32N 39°17' W 076°36'0 0.0
2014-Dec-17 18:32N 39°17' W 076°36'0 0.0
2014-Dec-17 17:32N 39°17' W 076°36'0 0.0
2014-Dec-17 16:32N 39°17' W 076°36'0 0.0
2014-Dec-17 15:32N 39°17' W 076°36'0 0.0
2014-Dec-17 14:32N 39°17' W 076°36'0 0.0
2014-Dec-17 13:29N 39°17' W 076°36'0 0.0
2014-Dec-17 12:31N 39°17' W 076°36'0 0.0
2014-Dec-17 11:31N 39°17' W 076°36'0 0.0
2014-Dec-17 10:31N 39°17' W 076°36'1 1.0
2014-Dec-17 09:32N 39°16' W 076°34'4 3.6
2014-Dec-17 08:33N 39°13' W 076°35'0 0.3
2014-Dec-17 07:33N 39°13' W 076°35'4 4.1
2014-Dec-17 06:32N 39°17' W 076°36'0 0.0
2014-Dec-17 05:32N 39°17' W 076°36'0 0.0
2014-Dec-17 04:32N 39°17' W 076°36'0 0.0
2014-Dec-17 03:32N 39°17' W 076°36'0 0.0
2014-Dec-17 02:32N 39°17' W 076°36'0 0.0
2014-Dec-17 01:32N 39°17' W 076°36'0 0.0
2014-Dec-17 00:32N 39°17' W 076°36'0 0.0
2014-Dec-16 23:32N 39°17' W 076°36'0 0.0
2014-Dec-16 22:32N 39°17' W 076°36'0 0.0
2014-Dec-16 21:32N 39°17' W 076°36'0 0.0
2014-Dec-16 20:32N 39°17' W 076°36'0 0.0
2014-Dec-16 19:32N 39°17' W 076°36'0 0.0
2014-Dec-16 18:32N 39°17' W 076°36'0 0.0
2014-Dec-16 17:31N 39°17' W 076°36'0 0.0
2014-Dec-16 16:31N 39°17' W 076°36'0 0.0
2014-Dec-16 15:31N 39°17' W 076°36'2 1.8
2014-Dec-16 14:33N 39°15' W 076°34'3 2.7
2014-Dec-16 13:31N 39°13' W 076°35'2 2.3
2014-Dec-16 12:33N 39°13' W 076°32'1 0.7
2014-Dec-16 11:33N 39°14' W 076°33'0 0.1
2014-Dec-16 10:33N 39°14' W 076°33'0 0.0
2014-Dec-16 09:33N 39°14' W 076°33'0 0.0
2014-Dec-16 08:31N 39°14' W 076°33'0 0.0
2014-Dec-16 07:30N 39°14' W 076°33'0 0.0
2014-Dec-16 06:33N 39°14' W 076°33'0 0.0
2014-Dec-16 05:33N 39°14' W 076°33'0 0.0
2014-Dec-16 04:27N 39°14' W 076°33'0 0.0
2014-Dec-16 03:30N 39°14' W 076°33'0 0.0
2014-Dec-16 02:30N 39°14' W 076°33'0 0.0
2014-Dec-16 01:09N 39°14' W 076°33'0 0.0
2014-Dec-15 23:33N 39°14' W 076°33'0 0.0
2014-Dec-15 22:33N 39°14' W 076°33'0 0.0
2014-Dec-15 21:33N 39°14' W 076°33'0 0.0
2014-Dec-15 20:33N 39°14' W 076°33'0 0.0
2014-Dec-15 19:33N 39°14' W 076°33'0 0.0
2014-Dec-15 18:33N 39°14' W 076°33'0 0.0
2014-Dec-15 17:33N 39°14' W 076°33'0 0.0
2014-Dec-15 16:33N 39°14' W 076°33'0 0.0
2014-Dec-15 15:33N 39°14' W 076°33'0 0.0
2014-Dec-15 14:33N 39°14' W 076°33'0 0.0
2014-Dec-15 13:33N 39°14' W 076°33'0 0.0
2014-Dec-15 12:33N 39°14' W 076°33'0 0.1
2014-Dec-15 11:33N 39°14' W 076°33'0 0.0
2014-Dec-15 10:32N 39°14' W 076°32'0 0.0
2014-Dec-15 09:32N 39°14' W 076°32'0 0.0
2014-Dec-15 08:33N 39°14' W 076°33'0 0.0
2014-Dec-15 07:32N 39°14' W 076°33'0 0.0
2014-Dec-15 06:32N 39°14' W 076°33'0 0.0
2014-Dec-15 05:32N 39°14' W 076°33'0 0.0
2014-Dec-15 04:32N 39°14' W 076°33'0 0.0
2014-Dec-15 03:32N 39°14' W 076°32'0 0.0
2014-Dec-15 02:32N 39°14' W 076°32'0 0.0
2014-Dec-15 01:29N 39°14' W 076°32'0 0.0
2014-Dec-15 00:26N 39°14' W 076°32'0 0.0
2014-Dec-14 23:29N 39°14' W 076°32'0 0.0
2014-Dec-14 22:32N 39°14' W 076°32'0 0.0
2014-Dec-14 21:32N 39°14' W 076°32'0 0.0
2014-Dec-14 20:29N 39°14' W 076°32'0 0.0
2014-Dec-14 19:29N 39°14' W 076°32'0 0.0
2014-Dec-14 18:32N 39°14' W 076°32'0 0.0
2014-Dec-14 17:32N 39°14' W 076°32'0 0.0
2014-Dec-14 16:32N 39°14' W 076°32'0 0.0
2014-Dec-14 15:26N 39°14' W 076°32'0 0.0
2014-Dec-14 14:32N 39°14' W 076°32'0 0.0
2014-Dec-14 13:29N 39°14' W 076°32'0 0.0
2014-Dec-14 12:32N 39°14' W 076°32'0 0.0
2014-Dec-14 11:26N 39°14' W 076°32'0 0.0
2014-Dec-14 10:29N 39°14' W 076°32'0 0.0
2014-Dec-14 09:32N 39°14' W 076°32'0 0.0
2014-Dec-14 08:32N 39°14' W 076°32'0 0.0
2014-Dec-14 07:32N 39°14' W 076°32'0 0.0
2014-Dec-14 06:26N 39°14' W 076°32'0 0.0
2014-Dec-14 05:32N 39°14' W 076°32'0 0.0
2014-Dec-14 04:32N 39°14' W 076°32'0 0.0
2014-Dec-14 03:26N 39°14' W 076°32'0 0.0
2014-Dec-14 02:32N 39°14' W 076°32'0 0.0
2014-Dec-14 01:29N 39°14' W 076°32'0 0.0
2014-Dec-14 00:32N 39°14' W 076°32'0 0.0
2014-Dec-13 23:17N 39°14' W 076°32'0 0.0
2014-Dec-13 22:29N 39°14' W 076°32'0 0.0
2014-Dec-13 21:31N 39°14' W 076°32'0 0.0
2014-Dec-13 20:32N 39°14' W 076°32'0 0.0
2014-Dec-13 19:28N 39°14' W 076°32'0 0.0
2014-Dec-13 18:29N 39°14' W 076°32'0 0.0
2014-Dec-13 17:31N 39°14' W 076°32'2 1.7
2014-Dec-13 16:33N 39°15' W 076°34'0 0.1
2014-Dec-13 15:33N 39°15' W 076°34'2 1.6
2014-Dec-13 14:33N 39°14' W 076°32'2 2.4
2014-Dec-13 13:33N 39°16' W 076°34'2 2.4
2014-Dec-13 12:33N 39°14' W 076°32'0 0.0
2014-Dec-13 11:33N 39°14' W 076°32'0 0.0
2014-Dec-13 10:33N 39°14' W 076°32'0 0.1
2014-Dec-13 09:34N 39°14' W 076°32'1 0.8
2014-Dec-13 08:33N 39°13' W 076°32'11 7.6
2014-Dec-13 07:08N 39°09' W 076°19'5 7.8
2014-Dec-13 06:33N 39°12' W 076°15'7 7.2
2014-Dec-13 05:32N 39°19' W 076°13'96 4.3
2014-Dec-12 07:19N 39°29' W 074°09'5 6.8
2014-Dec-12 06:33N 39°34' W 074°06'7 6.9
2014-Dec-12 05:33N 39°40' W 074°02'7 6.8
2014-Dec-12 04:33N 39°46' W 073°58'7 6.9
2014-Dec-12 03:33N 39°53' W 073°57'14 6.9
2014-Dec-12 01:29N 40°07' W 073°56'6 6.6
2014-Dec-12 00:33N 40°13' W 073°55'7 6.4
2014-Dec-11 23:32N 40°20' W 073°54'8 6.8
2014-Dec-11 22:23N 40°27' W 073°53'5 6.5
2014-Dec-11 21:34N 40°31' W 073°59'7 7.5
2014-Dec-11 20:34N 40°38' W 074°03'3 2.4
2014-Dec-11 19:31N 40°40' W 074°02'0 0.2
2014-Dec-11 18:31N 40°40' W 074°02'0 0.0
2014-Dec-11 17:34N 40°40' W 074°02'0 0.0
2014-Dec-11 16:33N 40°40' W 074°02'0 0.0
2014-Dec-11 15:33N 40°40' W 074°02'0 0.0
2014-Dec-11 14:33N 40°40' W 074°02'0 0.1
2014-Dec-11 13:33N 40°40' W 074°02'0 0.1
2014-Dec-11 12:33N 40°40' W 074°02'0 0.0
2014-Dec-11 11:33N 40°40' W 074°02'0 0.0
2014-Dec-11 10:33N 40°40' W 074°02'0 0.0
2014-Dec-11 09:33N 40°40' W 074°02'0 0.0
2014-Dec-11 08:33N 40°40' W 074°02'0 0.0
2014-Dec-11 07:33N 40°40' W 074°02'0 0.1
2014-Dec-11 06:33N 40°40' W 074°02'0 0.1
2014-Dec-11 05:33N 40°40' W 074°02'0 0.0
2014-Dec-11 04:33N 40°40' W 074°02'0 0.0
2014-Dec-11 03:33N 40°40' W 074°02'0 0.1
2014-Dec-11 02:33N 40°40' W 074°02'0 0.1
2014-Dec-11 01:33N 40°40' W 074°02'0 0.0
2014-Dec-11 00:33N 40°40' W 074°02'0 0.0
2014-Dec-10 23:33N 40°40' W 074°02'0 0.0
2014-Dec-10 22:33N 40°40' W 074°02'0 0.0
2014-Dec-10 21:33N 40°40' W 074°02'0 0.0
2014-Dec-10 20:33N 40°40' W 074°02'0 0.0
2014-Dec-10 19:33N 40°40' W 074°02'0 0.0
2014-Dec-10 18:33N 40°40' W 074°02'0 0.1
2014-Dec-10 17:33N 40°40' W 074°02'0 0.1
2014-Dec-10 16:33N 40°40' W 074°02'0 0.0
2014-Dec-10 15:33N 40°40' W 074°02'0 0.1
2014-Dec-10 14:33N 40°40' W 074°02'0 0.0
2014-Dec-10 13:33N 40°40' W 074°02'0 0.1
2014-Dec-10 12:33N 40°40' W 074°02'0 0.0
2014-Dec-10 11:33N 40°40' W 074°02'0 0.0
2014-Dec-10 10:33N 40°40' W 074°02'0 0.0
2014-Dec-10 09:33N 40°40' W 074°02'0 0.0
2014-Dec-10 08:33N 40°40' W 074°02'0 0.0
2014-Dec-10 07:32N 40°40' W 074°02'0 0.0
2014-Dec-10 06:32N 40°40' W 074°02'0 0.2
2014-Dec-10 05:32N 40°40' W 074°02'0 0.1
2014-Dec-10 04:32N 40°40' W 074°02'0 0.1
2014-Dec-10 03:32N 40°40' W 074°02'0 0.1
2014-Dec-10 02:32N 40°40' W 074°02'0 0.1
2014-Dec-10 01:32N 40°40' W 074°02'0 0.0
2014-Dec-10 00:32N 40°40' W 074°02'0 0.0
2014-Dec-09 23:32N 40°40' W 074°02'0 0.0
2014-Dec-09 22:32N 40°40' W 074°02'0 0.0
2014-Dec-09 21:32N 40°40' W 074°02'0 0.0
2014-Dec-09 20:32N 40°40' W 074°02'4 3.8
2014-Dec-09 19:24N 40°38' W 074°08'1 1.6
2014-Dec-09 18:33N 40°39' W 074°10'1 1.4
2014-Dec-09 17:33N 40°38' W 074°08'0 0.0
2014-Dec-09 16:33N 40°38' W 074°08'4 3.7
2014-Dec-09 15:33N 40°40' W 074°03'1 0.6
2014-Dec-09 14:32N 40°40' W 074°02'0 0.0
2014-Dec-09 13:32N 40°40' W 074°02'0 0.0
2014-Dec-09 12:32N 40°40' W 074°02'0 0.0
2014-Dec-09 11:32N 40°40' W 074°02'0 0.0
2014-Dec-09 10:32N 40°40' W 074°02'0 0.0
2014-Dec-09 09:32N 40°40' W 074°02'0 0.0
2014-Dec-09 08:32N 40°40' W 074°02'0 0.0
2014-Dec-09 07:32N 40°40' W 074°02'0 0.0
2014-Dec-09 06:32N 40°40' W 074°02'0 0.0
2014-Dec-09 05:32N 40°40' W 074°02'0 0.2
2014-Dec-09 04:32N 40°40' W 074°02'0 0.0
2014-Dec-09 03:32N 40°40' W 074°02'0 0.0
2014-Dec-09 02:32N 40°40' W 074°02'0 0.1
2014-Dec-09 01:26N 40°40' W 074°02'0 0.1
2014-Dec-09 00:32N 40°40' W 074°02'0 0.0
2014-Dec-08 23:32N 40°40' W 074°02'0 0.0
2014-Dec-08 22:32N 40°40' W 074°02'0 0.0
2014-Dec-08 21:32N 40°40' W 074°02'0 0.0
2014-Dec-08 20:32N 40°40' W 074°02'0 0.0
2014-Dec-08 19:32N 40°40' W 074°02'0 0.0
2014-Dec-08 18:32N 40°40' W 074°02'0 0.0
2014-Dec-08 17:32N 40°40' W 074°02'0 0.1
2014-Dec-08 16:32N 40°40' W 074°02'0 0.2
2014-Dec-08 15:32N 40°40' W 074°02'0 0.0
2014-Dec-08 14:32N 40°40' W 074°02'0 0.0
2014-Dec-08 13:28N 40°40' W 074°02'0 0.1
2014-Dec-08 12:31N 40°40' W 074°02'0 0.1
2014-Dec-08 11:28N 40°40' W 074°03'0 0.1
2014-Dec-08 10:31N 40°40' W 074°02'0 0.0
2014-Dec-08 09:31N 40°40' W 074°02'0 0.0
2014-Dec-08 08:31N 40°40' W 074°02'0 0.0
2014-Dec-08 07:31N 40°40' W 074°02'0 0.0
2014-Dec-08 06:31N 40°40' W 074°02'0 0.0
2014-Dec-08 05:31N 40°40' W 074°02'0 0.0
2014-Dec-08 04:31N 40°40' W 074°02'0 0.1
2014-Dec-08 03:31N 40°40' W 074°02'0 0.1
2014-Dec-08 02:31N 40°40' W 074°02'  
Track history (hours):
 
Tides and Currents Weather Stations Pressure Air Temp Water Temp Dewpoint Dewpoint Depression Visibility Wind Speed Wind Dir Waves Ship Positions

Stephen Scott

Owner: H A REINAUER INC, STATEN ISLAND, NY. More information available from US FCC via Universal Licensing System and Coast Guard Vessel Documentation Center.

Last reported at 2014-Dec-18 02:18 UTC. Time now 2014-Dec-18 23:10 UTC.
Position N 39°14' W 076°15'.

Length 30 m; draft 2.5 m.

Type: Towing. MMSI: 366245490.

Date/timePositionNaut miles runAvg speedWind from/ knotsBaromVisibWave heightAir tempDewpointWater temp
2014-Dec-18 02:18N 39°14' W 076°15'5 6.7
2014-Dec-18 01:33N 39°10' W 076°18'7 6.7
2014-Dec-18 00:34N 39°11' W 076°27'8 7.6
2014-Dec-17 23:33N 39°16' W 076°34'1 1.4
2014-Dec-17 22:32N 39°17' W 076°36'0 0.0
2014-Dec-17 21:32N 39°17' W 076°36'0 0.0
2014-Dec-17 20:32N 39°17' W 076°36'0 0.0
2014-Dec-17 19:32N 39°17' W 076°36'0 0.0
2014-Dec-17 18:32N 39°17' W 076°36'0 0.0
2014-Dec-17 17:32N 39°17' W 076°36'0 0.0
2014-Dec-17 16:32N 39°17' W 076°36'0 0.0
2014-Dec-17 15:32N 39°17' W 076°36'0 0.0
2014-Dec-17 14:32N 39°17' W 076°36'0 0.0
2014-Dec-17 13:29N 39°17' W 076°36'0 0.0
2014-Dec-17 12:31N 39°17' W 076°36'0 0.0
2014-Dec-17 11:31N 39°17' W 076°36'0 0.0
2014-Dec-17 10:31N 39°17' W 076°36'1 1.0
2014-Dec-17 09:32N 39°16' W 076°34'4 3.6
2014-Dec-17 08:33N 39°13' W 076°35'0 0.3
2014-Dec-17 07:33N 39°13' W 076°35'4 4.1
2014-Dec-17 06:32N 39°17' W 076°36'0 0.0
2014-Dec-17 05:32N 39°17' W 076°36'0 0.0
2014-Dec-17 04:32N 39°17' W 076°36'0 0.0
2014-Dec-17 03:32N 39°17' W 076°36'0 0.0
2014-Dec-17 02:32N 39°17' W 076°36'0 0.0
2014-Dec-17 01:32N 39°17' W 076°36'0 0.0
2014-Dec-17 00:32N 39°17' W 076°36'0 0.0
2014-Dec-16 23:32N 39°17' W 076°36'0 0.0
2014-Dec-16 22:32N 39°17' W 076°36'0 0.0
2014-Dec-16 21:32N 39°17' W 076°36'0 0.0
2014-Dec-16 20:32N 39°17' W 076°36'0 0.0
2014-Dec-16 19:32N 39°17' W 076°36'0 0.0
2014-Dec-16 18:32N 39°17' W 076°36'0 0.0
2014-Dec-16 17:31N 39°17' W 076°36'0 0.0
2014-Dec-16 16:31N 39°17' W 076°36'0 0.0
2014-Dec-16 15:31N 39°17' W 076°36'2 1.8
2014-Dec-16 14:33N 39°15' W 076°34'3 2.7
2014-Dec-16 13:31N 39°13' W 076°35'2 2.3
2014-Dec-16 12:33N 39°13' W 076°32'1 0.7
2014-Dec-16 11:33N 39°14' W 076°33'0 0.1
2014-Dec-16 10:33N 39°14' W 076°33'0 0.0
2014-Dec-16 09:33N 39°14' W 076°33'0 0.0
2014-Dec-16 08:31N 39°14' W 076°33'0 0.0
2014-Dec-16 07:30N 39°14' W 076°33'0 0.0
2014-Dec-16 06:33N 39°14' W 076°33'0 0.0
2014-Dec-16 05:33N 39°14' W 076°33'0 0.0
2014-Dec-16 04:27N 39°14' W 076°33'0 0.0
2014-Dec-16 03:30N 39°14' W 076°33'0 0.0
2014-Dec-16 02:30N 39°14' W 076°33'0 0.0
2014-Dec-16 01:09N 39°14' W 076°33'0 0.0
2014-Dec-15 23:33N 39°14' W 076°33'0 0.0
2014-Dec-15 22:33N 39°14' W 076°33'0 0.0
2014-Dec-15 21:33N 39°14' W 076°33'0 0.0
2014-Dec-15 20:33N 39°14' W 076°33'0 0.0
2014-Dec-15 19:33N 39°14' W 076°33'0 0.0
2014-Dec-15 18:33N 39°14' W 076°33'0 0.0
2014-Dec-15 17:33N 39°14' W 076°33'0 0.0
2014-Dec-15 16:33N 39°14' W 076°33'0 0.0
2014-Dec-15 15:33N 39°14' W 076°33'0 0.0
2014-Dec-15 14:33N 39°14' W 076°33'0 0.0
2014-Dec-15 13:33N 39°14' W 076°33'0 0.0
2014-Dec-15 12:33N 39°14' W 076°33'0 0.1
2014-Dec-15 11:33N 39°14' W 076°33'0 0.0
2014-Dec-15 10:32N 39°14' W 076°32'0 0.0
2014-Dec-15 09:32N 39°14' W 076°32'0 0.0
2014-Dec-15 08:33N 39°14' W 076°33'0 0.0
2014-Dec-15 07:32N 39°14' W 076°33'0 0.0
2014-Dec-15 06:32N 39°14' W 076°33'0 0.0
2014-Dec-15 05:32N 39°14' W 076°33'0 0.0
2014-Dec-15 04:32N 39°14' W 076°33'0 0.0
2014-Dec-15 03:32N 39°14' W 076°32'0 0.0
2014-Dec-15 02:32N 39°14' W 076°32'0 0.0
2014-Dec-15 01:29N 39°14' W 076°32'0 0.0
2014-Dec-15 00:26N 39°14' W 076°32'0 0.0
2014-Dec-14 23:29N 39°14' W 076°32'0 0.0
2014-Dec-14 22:32N 39°14' W 076°32'0 0.0
2014-Dec-14 21:32N 39°14' W 076°32'0 0.0
2014-Dec-14 20:29N 39°14' W 076°32'0 0.0
2014-Dec-14 19:29N 39°14' W 076°32'0 0.0
2014-Dec-14 18:32N 39°14' W 076°32'0 0.0
2014-Dec-14 17:32N 39°14' W 076°32'0 0.0
2014-Dec-14 16:32N 39°14' W 076°32'0 0.0
2014-Dec-14 15:26N 39°14' W 076°32'0 0.0
2014-Dec-14 14:32N 39°14' W 076°32'0 0.0
2014-Dec-14 13:29N 39°14' W 076°32'0 0.0
2014-Dec-14 12:32N 39°14' W 076°32'0 0.0
2014-Dec-14 11:26N 39°14' W 076°32'0 0.0
2014-Dec-14 10:29N 39°14' W 076°32'0 0.0
2014-Dec-14 09:32N 39°14' W 076°32'0 0.0
2014-Dec-14 08:32N 39°14' W 076°32'0 0.0
2014-Dec-14 07:32N 39°14' W 076°32'0 0.0
2014-Dec-14 06:26N 39°14' W 076°32'0 0.0
2014-Dec-14 05:32N 39°14' W 076°32'0 0.0
2014-Dec-14 04:32N 39°14' W 076°32'0 0.0
2014-Dec-14 03:26N 39°14' W 076°32'0 0.0
2014-Dec-14 02:32N 39°14' W 076°32'0 0.0
2014-Dec-14 01:29N 39°14' W 076°32'0 0.0
2014-Dec-14 00:32N 39°14' W 076°32'0 0.0
2014-Dec-13 23:17N 39°14' W 076°32'0 0.0
2014-Dec-13 22:29N 39°14' W 076°32'0 0.0
2014-Dec-13 21:31N 39°14' W 076°32'0 0.0
2014-Dec-13 20:32N 39°14' W 076°32'0 0.0
2014-Dec-13 19:28N 39°14' W 076°32'0 0.0
2014-Dec-13 18:29N 39°14' W 076°32'0 0.0
2014-Dec-13 17:31N 39°14' W 076°32'2 1.7
2014-Dec-13 16:33N 39°15' W 076°34'0 0.1
2014-Dec-13 15:33N 39°15' W 076°34'2 1.6
2014-Dec-13 14:33N 39°14' W 076°32'2 2.4
2014-Dec-13 13:33N 39°16' W 076°34'2 2.4
2014-Dec-13 12:33N 39°14' W 076°32'0 0.0
2014-Dec-13 11:33N 39°14' W 076°32'0 0.0
2014-Dec-13 10:33N 39°14' W 076°32'0 0.1
2014-Dec-13 09:34N 39°14' W 076°32'1 0.8
2014-Dec-13 08:33N 39°13' W 076°32'11 7.6
2014-Dec-13 07:08N 39°09' W 076°19'5 7.8
2014-Dec-13 06:33N 39°12' W 076°15'7 7.2
2014-Dec-13 05:32N 39°19' W 076°13'96 4.3
2014-Dec-12 07:19N 39°29' W 074°09'5 6.8
2014-Dec-12 06:33N 39°34' W 074°06'7 6.9
2014-Dec-12 05:33N 39°40' W 074°02'7 6.8
2014-Dec-12 04:33N 39°46' W 073°58'7 6.9
2014-Dec-12 03:33N 39°53' W 073°57'14 6.9
2014-Dec-12 01:29N 40°07' W 073°56'6 6.6
2014-Dec-12 00:33N 40°13' W 073°55'7 6.4
2014-Dec-11 23:32N 40°20' W 073°54'8 6.8
2014-Dec-11 22:23N 40°27' W 073°53'5 6.5
2014-Dec-11 21:34N 40°31' W 073°59'7 7.5
2014-Dec-11 20:34N 40°38' W 074°03'3 2.4
2014-Dec-11 19:31N 40°40' W 074°02'0 0.2
2014-Dec-11 18:31N 40°40' W 074°02'0 0.0
2014-Dec-11 17:34N 40°40' W 074°02'0 0.0
2014-Dec-11 16:33N 40°40' W 074°02'0 0.0
2014-Dec-11 15:33N 40°40' W 074°02'0 0.0
2014-Dec-11 14:33N 40°40' W 074°02'0 0.1
2014-Dec-11 13:33N 40°40' W 074°02'0 0.1
2014-Dec-11 12:33N 40°40' W 074°02'0 0.0
2014-Dec-11 11:33N 40°40' W 074°02'0 0.0
2014-Dec-11 10:33N 40°40' W 074°02'0 0.0
2014-Dec-11 09:33N 40°40' W 074°02'0 0.0
2014-Dec-11 08:33N 40°40' W 074°02'0 0.0
2014-Dec-11 07:33N 40°40' W 074°02'0 0.1
2014-Dec-11 06:33N 40°40' W 074°02'0 0.1
2014-Dec-11 05:33N 40°40' W 074°02'0 0.0
2014-Dec-11 04:33N 40°40' W 074°02'0 0.0
2014-Dec-11 03:33N 40°40' W 074°02'0 0.1
2014-Dec-11 02:33N 40°40' W 074°02'0 0.1
2014-Dec-11 01:33N 40°40' W 074°02'0 0.0
2014-Dec-11 00:33N 40°40' W 074°02'0 0.0
2014-Dec-10 23:33N 40°40' W 074°02'0 0.0
2014-Dec-10 22:33N 40°40' W 074°02'0 0.0
2014-Dec-10 21:33N 40°40' W 074°02'0 0.0
2014-Dec-10 20:33N 40°40' W 074°02'0 0.0
2014-Dec-10 19:33N 40°40' W 074°02'0 0.0
2014-Dec-10 18:33N 40°40' W 074°02'0 0.1
2014-Dec-10 17:33N 40°40' W 074°02'0 0.1
2014-Dec-10 16:33N 40°40' W 074°02'0 0.0
2014-Dec-10 15:33N 40°40' W 074°02'0 0.1
2014-Dec-10 14:33N 40°40' W 074°02'0 0.0
2014-Dec-10 13:33N 40°40' W 074°02'0 0.1
2014-Dec-10 12:33N 40°40' W 074°02'0 0.0
2014-Dec-10 11:33N 40°40' W 074°02'0 0.0
2014-Dec-10 10:33N 40°40' W 074°02'0 0.0
2014-Dec-10 09:33N 40°40' W 074°02'0 0.0
2014-Dec-10 08:33N 40°40' W 074°02'0 0.0
2014-Dec-10 07:32N 40°40' W 074°02'0 0.0
2014-Dec-10 06:32N 40°40' W 074°02'0 0.2
2014-Dec-10 05:32N 40°40' W 074°02'0 0.1
2014-Dec-10 04:32N 40°40' W 074°02'0 0.1
2014-Dec-10 03:32N 40°40' W 074°02'0 0.1
2014-Dec-10 02:32N 40°40' W 074°02'0 0.1
2014-Dec-10 01:32N 40°40' W 074°02'0 0.0
2014-Dec-10 00:32N 40°40' W 074°02'0 0.0
2014-Dec-09 23:32N 40°40' W 074°02'0 0.0
2014-Dec-09 22:32N 40°40' W 074°02'0 0.0
2014-Dec-09 21:32N 40°40' W 074°02'0 0.0
2014-Dec-09 20:32N 40°40' W 074°02'4 3.8
2014-Dec-09 19:24N 40°38' W 074°08'1 1.6
2014-Dec-09 18:33N 40°39' W 074°10'1 1.4
2014-Dec-09 17:33N 40°38' W 074°08'0 0.0
2014-Dec-09 16:33N 40°38' W 074°08'4 3.7
2014-Dec-09 15:33N 40°40' W 074°03'1 0.6
2014-Dec-09 14:32N 40°40' W 074°02'0 0.0
2014-Dec-09 13:32N 40°40' W 074°02'0 0.0
2014-Dec-09 12:32N 40°40' W 074°02'0 0.0
2014-Dec-09 11:32N 40°40' W 074°02'0 0.0
2014-Dec-09 10:32N 40°40' W 074°02'0 0.0
2014-Dec-09 09:32N 40°40' W 074°02'0 0.0
2014-Dec-09 08:32N 40°40' W 074°02'0 0.0
2014-Dec-09 07:32N 40°40' W 074°02'0 0.0
2014-Dec-09 06:32N 40°40' W 074°02'0 0.0
2014-Dec-09 05:32N 40°40' W 074°02'0 0.2
2014-Dec-09 04:32N 40°40' W 074°02'0 0.0
2014-Dec-09 03:32N 40°40' W 074°02'0 0.0
2014-Dec-09 02:32N 40°40' W 074°02'0 0.1
2014-Dec-09 01:26N 40°40' W 074°02'0 0.1
2014-Dec-09 00:32N 40°40' W 074°02'0 0.0
2014-Dec-08 23:32N 40°40' W 074°02'0 0.0
2014-Dec-08 22:32N 40°40' W 074°02'0 0.0
2014-Dec-08 21:32N 40°40' W 074°02'0 0.0
2014-Dec-08 20:32N 40°40' W 074°02'0 0.0
2014-Dec-08 19:32N 40°40' W 074°02'0 0.0
2014-Dec-08 18:32N 40°40' W 074°02'0 0.0
2014-Dec-08 17:32N 40°40' W 074°02'0 0.1
2014-Dec-08 16:32N 40°40' W 074°02'0 0.2
2014-Dec-08 15:32N 40°40' W 074°02'0 0.0
2014-Dec-08 14:32N 40°40' W 074°02'0 0.0
2014-Dec-08 13:28N 40°40' W 074°02'0 0.1
2014-Dec-08 12:31N 40°40' W 074°02'0 0.1
2014-Dec-08 11:28N 40°40' W 074°03'0 0.1
2014-Dec-08 10:31N 40°40' W 074°02'0 0.0
2014-Dec-08 09:31N 40°40' W 074°02'0 0.0
2014-Dec-08 08:31N 40°40' W 074°02'0 0.0
2014-Dec-08 07:31N 40°40' W 074°02'0 0.0
2014-Dec-08 06:31N 40°40' W 074°02'0 0.0
2014-Dec-08 05:31N 40°40' W 074°02'0 0.0
2014-Dec-08 04:31N 40°40' W 074°02'0 0.1
2014-Dec-08 03:31N 40°40' W 074°02'0 0.1
2014-Dec-08 02:31N 40°40' W 074°02'  

Dump ship's entire track history